NCAR-RAP Real-Time Weather Data

Output produced by METARs form (06 May 2021  15:02 UTC)
found at http://weather.rap.ucar.edu/surface/
 
KZZV 061453Z AUTO VRB03KT 10SM CLR 12/04 A3015 RMK AO2 SLP213 T01170039 58001
KZZV 061353Z AUTO 00000KT 10SM CLR 11/05 A3016 RMK AO2 SLP216 T01060050
KZZV 061253Z AUTO 00000KT 10SM CLR 06/04 A3017 RMK AO2 SLP219 T00610044
KZZV 061153Z AUTO 00000KT 10SM CLR 03/03 A3015 RMK AO2 SLP214 7//// I6001 T00330028 10033 20000 53010
KZZV 061053Z AUTO 00000KT 10SM FEW001 01/01 A3014 RMK AO2 SLP210 T00060006
KZZV 061044Z AUTO 00000KT 9SM SCT001 01/00 A3013 RMK AO2 T00060000
KZZV 061040Z AUTO 00000KT 2SM BR BKN001 01/00 A3013 RMK AO2 T00060000
KZZV 061018Z AUTO 00000KT 3/4SM BR VV001 01/00 A3013 RMK AO2 T00060000
KZZV 061015Z AUTO 00000KT 1 3/4SM BR OVC001 01/00 A3013 RMK AO2 T00060000
KZZV 060953Z AUTO 00000KT 10SM BKN001 01/00 A3013 RMK AO2 SLP205 I1001 T00060000
KZZV 060853Z AUTO 00000KT 10SM FEW001 01/01 A3012 RMK AO2 SLP204 I1000 I3/// T00110006 55000
KZZV 060840Z AUTO 00000KT 10SM SCT001 01/01 A3012 RMK AO2 I1000 T00110006
KZZV 060753Z AUTO 00000KT 9SM CLR 02/01 A3012 RMK AO2 SLP203 T00170011
KZZV 060735Z AUTO 00000KT 5SM BR FEW001 02/01 A3012 RMK AO2 T00170011
KZZV 060727Z AUTO 00000KT 2SM BR SCT001 02/01 A3012 RMK AO2 T00220011
KZZV 060725Z AUTO 00000KT 1 1/4SM BR SCT001 02/01 A3012 RMK AO2 T00220011
KZZV 060713Z AUTO 00000KT 3/4SM BR VV001 02/02 A3012 RMK AO2 T00170017
KZZV 060709Z AUTO 00000KT 1 1/4SM BR SCT001 02/01 A3012 RMK AO2 T00170011
KZZV 060701Z AUTO 00000KT 1 1/2SM BR BKN001 02/02 A3012 RMK AO2 T00220017
KZZV 060653Z AUTO 00000KT 3/4SM BR VV001 02/02 A3012 RMK AO2 SLP203 T00220017
KZZV 060639Z AUTO 00000KT 3/4SM BR VV001 02/02 A3012 RMK AO2 T00220017
KZZV 060636Z AUTO 00000KT 1 1/2SM BR FEW001 02/02 A3012 RMK AO2 T00220017
KZZV 060553Z AUTO 00000KT 10SM CLR 03/02 A3012 RMK AO2 SLP203 T00330022 10100 20028 57003
KZZV 060453Z AUTO 00000KT 10SM CLR 03/03 A3013 RMK AO2 SLP205 T00330028 401500033
KZZV 060353Z AUTO 00000KT 10SM CLR 04/03 A3013 RMK AO2 SLP205 T00390028
KZZV 060253Z AUTO 00000KT 10SM CLR 05/03 A3013 RMK AO2 SLP207 T00500033 51017
KZZV 060153Z AUTO 00000KT 10SM CLR 07/03 A3012 RMK AO2 SLP202 T00670033
KZZV 060053Z AUTO 32006KT 10SM CLR 07/02 A3010 RMK AO2 SLP195 T00720017
KZZV 052353Z AUTO 33012KT 10SM FEW055 10/02 A3008 RMK AO2 SLP187 T01000022 10144 20100 53023